Latest Weather Observations for Adelaide Airport

IDS60801

Issued at 9:31 am CDT Tuesday 23 December 2014 (issued every 30 minutes, with the page automatically refreshed every 10 minutes)

About weather observations | Map of weather stations | Latest weather observations for SA | Other Formats
Station Details ID: 023034 Name: ADELAIDE AIRPORT Lat: -34.95 Lon: 138.52 Height: 2.0 m
Data from the previous 72 hours. | See also: Recent months at Adelaide Airport
Date/Time
CDT
Temp
°C
App
Temp
°C
Dew
Point
Rel
Hum
%
Delta-T
°C
Wind Press
QNH
hPa
Press
MSL
hPa
Rain
since 9 am
mm
Dir
 
Spd
km/h
Gust
km/h
Spd
kts
Gust
kts
23/09:30am 19.7 15.4 13.2 66 3.7 SW 28 33 15 18 1013.3 - 0.0
23/08:30am 18.2 15.7 13.4 73 2.7 SSW 19 26 10 14 1012.7 - 1.2
23/08:00am 18.4 16.5 14.2 76 2.4 S 17 22 9 12 1012.2 - 1.2
23/07:30am 18.3 16.0 14.1 76 2.4 S 19 26 10 14 1011.8 - 1.2
23/07:00am 18.2 16.0 14.4 78 2.2 S 19 26 10 14 1011.3 - 1.2
23/06:30am 18.2 16.6 14.9 81 1.9 S 17 24 9 13 1011.0 - 1.2
23/06:00am 18.3 15.7 14.9 80 2.0 S 22 33 12 18 1010.6 1010.6 1.2
23/05:30am 18.3 16.3 15.4 83 1.7 SSW 20 30 11 16 1010.3 - 1.2
23/05:00am 18.4 15.4 14.8 79 2.1 SSW 24 33 13 18 1010.0 - 1.2
23/04:34am 18.5 15.3 15.4 82 1.8 SSW 26 35 14 19 1009.9 - 1.2
23/04:30am 18.5 15.7 15.4 82 1.8 SSW 24 35 13 19 1009.9 - 1.2
23/04:00am 18.6 15.5 15.5 82 1.8 SW 26 33 14 18 1009.9 - 1.2
23/03:30am 18.7 16.7 16.4 86 1.4 SW 22 28 12 15 1009.7 - 1.2
23/03:00am 19.1 17.8 17.3 89 1.1 SW 20 28 11 15 1009.6 1009.6 1.2
23/02:37am 19.4 19.5 17.4 88 1.2 SW 13 17 7 9 1009.5 - 1.2
23/02:30am 19.5 20.3 17.4 88 1.3 SSW 9 13 5 7 1009.5 - 1.2
23/02:00am 19.5 19.3 17.5 88 1.2 SW 15 19 8 10 1009.5 - 1.2
23/01:38am 19.5 19.4 17.9 90 1.0 SW 15 19 8 10 1009.6 - 1.2
23/01:30am 19.5 19.3 17.5 88 1.2 SW 15 20 8 11 1009.6 - 1.2
23/01:00am 19.5 19.6 17.5 88 1.2 SSW 13 19 7 10 1009.6 - 1.2
23/12:52am 19.6 19.8 17.6 88 1.2 SSW 13 19 7 10 1009.6 - 1.2
23/12:30am 19.7 19.3 17.1 85 1.6 SSW 15 19 8 10 1009.6 - 1.2
 
Date/Time
CDT
Temp
°C
App
Temp
°C
Dew
Point
Rel
Hum
%
Delta-T
°C
Wind Press
QNH
hPa
Press
MSL
hPa
Rain
since 9 am
mm
Dir
 
Spd
km/h
Gust
km/h
Spd
kts
Gust
kts
22/11:30pm 19.8 19.6 17.7 88 1.3 SSW 15 24 8 13 1009.5 - 1.2
22/11:00pm 20.2 20.1 16.9 81 2.0 SSW 13 17 7 9 1009.4 - 1.2
22/10:30pm 20.1 20.0 17.0 82 1.9 S 13 19 7 10 1009.2 - 1.2
22/10:00pm 20.1 19.6 17.0 82 1.9 S 15 19 8 10 1009.2 - 1.2
22/09:30pm 20.0 19.5 17.0 83 1.8 SSW 15 19 8 10 1009.0 - 1.2
22/09:00pm 20.0 19.9 17.9 88 1.3 SSW 15 19 8 10 1008.8 1008.8 1.2
22/08:30pm 20.5 20.5 17.2 81 2.0 SSW 13 15 7 8 1008.7 - 1.2
22/08:00pm 20.6 19.7 17.7 83 1.8 SW 19 20 10 11 1008.4 - 1.2
22/07:30pm 21.1 22.2 18.0 82 1.9 S 9 11 5 6 1007.7 - 1.2
22/07:00pm 20.5 22.1 18.3 87 1.4 E 7 9 4 5 1006.8 - 1.2
22/06:30pm 20.2 20.6 18.1 88 1.3 E 13 15 7 8 1007.0 - 1.2
22/06:00pm 20.3 20.1 17.7 85 1.6 WSW 15 19 8 10 1008.3 1008.3 0.4
22/05:30pm 21.2 21.7 17.5 79 2.3 SW 11 15 6 8 1008.4 - 0.0
22/05:00pm 21.5 21.3 17.6 78 2.4 SSW 15 22 8 12 1008.1 - 0.0
22/04:30pm 22.1 21.1 17.6 75 2.8 SW 19 24 10 13 1008.2 - 0.0
22/04:00pm 23.2 22.0 16.1 64 4.3 WSW 17 20 9 11 1008.1 - 0.0
22/03:30pm 23.9 23.4 15.8 60 4.9 WSW 13 19 7 10 1007.7 - 0.0
22/03:00pm 24.2 23.7 16.0 60 5.0 S 13 15 7 8 1007.2 1007.2 0.0
22/02:30pm 24.6 23.3 14.7 54 5.9 SE 15 19 8 10 1007.4 - 0.0
22/02:00pm 23.6 24.9 16.2 63 4.5 NNE 4 7 2 4 1009.0 - 0.0
22/01:30pm 22.9 25.2 17.6 72 3.3 E 2 6 1 3 1009.5 - 0.0
22/01:00pm 21.7 22.9 18.2 80 2.2 SW 9 11 5 6 1010.0 - 0.0
22/12:30pm 21.6 22.0 18.2 81 2.1 W 13 17 7 9 1010.6 - 0.0
22/12:00pm 22.2 22.7 16.6 70 3.4 SSW 9 13 5 7 1009.6 1009.6 0.0
22/11:30am 22.0 20.0 17.3 74 2.9 WSW 24 30 13 16 1009.4 - 0.0
22/11:00am 23.4 25.7 17.6 70 3.6 W 2 13 1 7 1008.7 - 0.0
22/10:30am 25.2 24.4 13.0 46 7.1 ENE 9 9 5 5 1008.4 - 0.0
22/10:00am 24.7 25.2 14.0 51 6.3 N 4 9 2 5 1007.8 - 0.0
22/09:30am 23.6 22.1 15.3 59 5.0 WNW 17 24 9 13 1007.7 - 0.0
22/09:07am 23.7 20.2 15.6 60 4.9 NW 28 35 15 19 1008.0 - 0.0
22/09:00am 24.1 24.1 15.1 57 5.4 E 9 13 5 7 1007.0 1007.0 0.0
22/08:30am 23.5 23.4 16.1 63 4.5 W 11 17 6 9 1006.2 - 0.0
22/08:00am 23.8 24.2 16.3 63 4.6 NNE 9 13 5 7 1006.0 - 0.0
22/07:30am 23.3 24.0 17.0 67 3.9 NE 9 11 5 6 1005.9 - 0.0
22/07:00am 22.2 23.2 16.8 71 3.3 N 7 9 4 5 1006.0 - 0.0
22/06:30am 22.6 22.2 16.2 67 3.9 W 13 15 7 8 1005.9 - 0.0
22/06:00am 22.7 21.1 13.8 57 5.2 W 15 19 8 10 1005.7 1005.7 0.0
22/05:30am 23.1 21.4 9.9 43 7.2 S 9 9 5 5 1005.2 - 0.0
22/05:00am 22.7 20.2 9.6 43 7.1 E 13 15 7 8 1005.4 - 0.0
22/04:30am 22.4 19.2 9.9 45 6.8 SE 17 17 9 9 1005.7 - 0.0
22/04:00am 21.5 20.1 10.8 50 5.9 SSE 9 11 5 6 1006.3 - 0.0
22/03:30am 22.5 21.5 11.0 48 6.4 E 7 9 4 5 1006.4 - 0.0
22/03:00am 22.9 20.4 9.7 43 7.2 E 13 15 7 8 1006.5 1006.5 0.0
22/02:30am 22.6 21.9 11.5 49 6.2 S 6 11 3 6 1007.3 - 0.0
22/02:00am 23.9 24.2 13.4 51 6.1 WNW 4 9 2 5 1007.4 - 0.0
22/01:30am 24.8 21.2 8.2 34 8.9 NW 17 20 9 11 1007.3 - 0.0
22/01:00am 25.2 21.3 7.2 31 9.5 SE 17 17 9 9 1007.4 - 0.0
22/12:30am 25.3 21.7 6.7 30 9.7 SE 15 19 8 10 1007.7 - 0.0
22/12:00am 25.5 24.1 9.7 37 8.7 SE 7 13 4 7 1008.3 1008.3 0.0
 
Date/Time
CDT
Temp
°C
App
Temp
°C
Dew
Point
Rel
Hum
%
Delta-T
°C
Wind Press
QNH
hPa
Press
MSL
hPa
Rain
since 9 am
mm
Dir
 
Spd
km/h
Gust
km/h
Spd
kts
Gust
kts
21/11:30pm 26.5 24.0 11.2 38 8.7 SE 15 19 8 10 1008.9 - 0.0
21/11:00pm 25.6 24.7 12.7 44 7.5 ENE 9 17 5 9 1009.3 - 0.0
21/10:30pm 25.8 23.0 12.7 44 7.6 W 19 32 10 17 1009.0 - 0.0
21/10:00pm 27.6 24.9 8.8 30 10.3 N 13 17 7 9 1009.3 - 0.0
21/09:30pm 27.2 24.8 7.1 28 10.7 ESE 9 11 5 6 1008.6 - 0.0
21/09:00pm 26.8 23.8 9.2 33 9.7 SE 15 19 8 10 1008.1 1008.1 0.0
21/08:30pm 27.6 24.3 9.6 32 10.0 SE 17 20 9 11 1007.9 - 0.0
21/08:00pm 28.7 25.0 10.1 31 10.5 ESE 20 28 11 15 1008.1 - 0.0
21/07:30pm 30.0 26.0 10.6 30 11.1 ESE 22 28 12 15 1008.0 - 0.0
21/07:00pm 31.1 27.0 11.6 30 11.4 ESE 24 32 13 17 1007.8 - 0.0
21/06:30pm 31.6 28.9 7.2 21 13.3 SSW 11 13 6 7 1007.8 - 0.0
21/06:00pm 31.7 28.2 5.5 19 13.9 SSW 13 17 7 9 1007.9 1007.9 0.0
21/05:30pm 32.3 27.8 4.4 17 14.6 SSW 17 20 9 11 1008.0 - 0.0
21/05:00pm 31.9 27.4 5.9 19 13.9 SSW 19 24 10 13 1008.5 - 0.0
21/04:30pm 30.0 26.9 12.3 33 10.4 SSW 20 26 11 14 1008.7 - 0.0
21/04:00pm 30.5 26.3 7.3 23 12.6 SSW 19 28 10 15 1009.0 - 0.0
21/03:30pm 29.8 25.2 9.5 28 11.4 SSW 24 30 13 16 1009.5 - 0.0
21/03:00pm 32.1 26.7 4.3 17 14.5 SSW 22 28 12 15 1009.7 1009.7 0.0
21/02:30pm 31.1 25.7 6.2 21 13.3 SW 24 32 13 17 1010.3 - 0.0
21/02:00pm 28.8 25.9 10.9 33 10.2 SW 17 28 9 15 1010.7 - 0.0
21/01:30pm 28.5 25.4 10.2 32 10.3 SW 17 22 9 12 1010.9 - 0.0
21/01:00pm 31.7 26.7 8.0 23 13.1 SW 24 30 13 16 1011.2 - 0.0
21/12:30pm 29.7 25.1 9.5 28 11.3 W 24 30 13 16 1011.3 - 0.0
21/12:00pm 32.1 25.6 2.4 15 15.0 NW 26 35 14 19 1011.1 1011.1 0.0
21/11:30am 32.3 26.6 4.7 17 14.5 NW 24 33 13 18 1011.1 - 0.0
21/11:00am 33.2 26.2 2.2 14 15.7 NNW 28 37 15 20 1011.0 - 0.0
21/10:42am 32.9 26.2 3.8 16 15.1 N 28 46 15 25 1011.0 - 0.0
21/10:30am 32.9 24.9 0.6 13 15.9 N 32 37 17 20 1011.1 - 0.0
21/10:00am 32.1 25.6 2.4 15 15.0 N 26 32 14 17 1011.1 - 0.0
21/09:30am 31.1 24.2 2.4 16 14.4 N 28 37 15 20 1011.2 - 0.0
21/09:00am 30.2 24.6 3.4 18 13.6 NNE 22 30 12 16 1011.2 1011.2 0.0
21/08:30am 28.9 24.7 5.5 22 12.2 NNE 17 26 9 14 1011.3 - 0.0
21/08:00am 26.1 23.4 8.8 33 9.4 NE 13 17 7 9 1011.2 - 0.0
21/07:30am 21.5 21.5 12.5 56 5.1 ENE 4 7 2 4 1011.1 - 0.0
21/07:00am 19.2 18.6 12.2 64 3.9 E 7 7 4 4 1011.1 - 0.0
21/06:30am 16.4 15.3 12.0 75 2.4 E 9 9 5 5 1010.8 - 0.0
21/06:00am 15.6 14.9 11.3 75 2.3 SE 6 7 3 4 1010.9 1010.9 0.0
21/05:30am 16.1 16.7 11.9 76 2.3 CALM 0 0 0 0 1010.9 - 0.0
21/05:00am 16.5 15.7 11.7 73 2.6 ENE 7 7 4 4 1010.8 - 0.0
21/04:30am 16.5 16.3 11.7 73 2.6 E 4 7 2 4 1010.8 - 0.0
21/04:00am 16.3 15.4 12.7 79 2.0 SE 9 11 5 6 1011.0 - 0.0
21/03:30am 16.9 17.3 12.4 75 2.5 W 2 6 1 3 1010.9 - 0.0
21/03:00am 17.5 18.1 12.0 70 3.0 CALM 0 9 0 5 1011.1 1011.1 0.0
21/02:30am 17.4 17.0 12.5 73 2.7 N 6 7 3 4 1011.5 - 0.0
21/02:00am 19.0 18.4 13.4 70 3.2 W 9 11 5 6 1012.1 - 0.0
21/01:30am 18.5 18.7 10.7 60 4.2 CALM 0 0 0 0 1011.7 - 0.0
21/01:00am 19.2 19.5 10.9 58 4.5 CALM 0 0 0 0 1012.0 - 0.0
21/12:30am 20.2 19.5 11.3 56 4.9 SE 6 9 3 5 1012.2 - 0.0
21/12:00am 19.7 19.0 12.0 61 4.3 ESE 7 9 4 5 1012.3 1012.3 0.0
 
Date/Time
CDT
Temp
°C
App
Temp
°C
Dew
Point
Rel
Hum
%
Delta-T
°C
Wind Press
QNH
hPa
Press
MSL
hPa
Rain
since 9 am
mm
Dir
 
Spd
km/h
Gust
km/h
Spd
kts
Gust
kts
20/11:30pm 20.1 20.7 11.8 59 4.6 CALM 0 0 0 0 1012.5 - 0.0
20/11:00pm 20.2 20.7 11.5 57 4.8 CALM 0 0 0 0 1012.9 - 0.0
20/10:30pm 21.3 21.7 11.4 53 5.5 CALM 0 0 0 0 1013.2 - 0.0
20/10:00pm 21.3 20.8 12.0 55 5.2 ENE 6 7 3 4 1013.3 - 0.0
20/09:30pm 21.9 22.1 14.6 63 4.3 ESE 7 9 4 5 1013.5 - 0.0
20/09:00pm 22.9 23.0 13.8 56 5.3 E 6 7 3 4 1013.5 1013.5 0.0
20/08:30pm 24.8 21.7 10.4 40 8.0 ESE 17 19 9 10 1013.2 - 0.0
20/08:00pm 25.9 24.8 10.5 38 8.6 N 7 9 4 5 1012.9 - 0.0
20/07:30pm 23.4 22.1 14.8 58 5.1 SW 15 19 8 10 1013.0 - 0.0
20/07:00pm 23.7 22.4 13.8 53 5.8 SW 13 17 7 9 1013.0 - 0.0
20/06:30pm 24.2 22.6 13.8 52 6.1 SW 15 19 8 10 1013.1 - 0.0
20/06:00pm 23.4 20.8 13.2 52 5.9 SW 19 24 10 13 1013.5 1013.5 0.0
20/05:30pm 23.5 20.6 12.9 51 6.1 SSW 20 26 11 14 1013.6 - 0.0
20/05:00pm 22.7 19.7 12.7 53 5.7 SW 20 26 11 14 1013.9 - 0.0
20/04:30pm 23.4 19.5 12.1 49 6.4 SW 24 28 13 15 1014.2 - 0.0
20/04:00pm 23.5 19.9 11.8 47 6.6 SW 22 28 12 15 1014.6 - 0.0
20/03:30pm 24.5 20.9 9.9 39 8.0 SW 19 28 10 15 1014.8 - 0.0
20/03:00pm 24.6 20.7 9.6 38 8.2 SW 20 26 11 14 1015.3 1015.3 0.0
20/02:30pm 23.9 20.4 11.0 44 7.2 SW 20 24 11 13 1016.0 - 0.0
20/02:00pm 23.4 19.7 10.3 43 7.2 SSW 20 28 11 15 1016.4 - 0.0
20/01:30pm 22.8 19.1 10.2 44 6.9 SW 20 26 11 14 1017.0 - 0.0
20/01:00pm 22.6 18.9 10.1 45 6.8 SW 20 30 11 16 1017.5 - 0.0
20/12:30pm 22.7 18.8 9.5 43 7.1 SW 20 26 11 14 1017.9 - 0.0
20/12:00pm 21.8 18.3 10.2 47 6.3 WSW 19 26 10 14 1018.2 1018.2 0.0
20/11:30am 21.1 17.9 10.0 49 6.0 SW 17 22 9 12 1018.5 - 0.0
20/11:00am 21.5 18.2 9.5 46 6.4 SW 17 22 9 12 1018.7 - 0.0
20/10:30am 20.5 17.5 9.4 49 5.9 WSW 15 20 8 11 1018.9 - 0.0
20/10:00am 19.8 17.4 10.1 53 5.2 SW 13 19 7 10 1019.1 - 0.0

Other Formats:

Comma delimited format used in spreadsheet applications
http://www.bom.gov.au/fwo/IDS60801/IDS60801.94672.axf

JavaScript Object Notation format (JSON) in row-major order
http://www.bom.gov.au/fwo/IDS60801/IDS60801.94672.json